sensor_id;sensor_type;location;lat;lon;timestamp;pressure;altitude;pressure_sealevel;temperature;humidity
51617;BME280;37697;52.588;13.394;2023-05-10T00:04:55;100802.77;;;11.53;48.78
51617;BME280;37697;52.588;13.394;2023-05-10T00:10:20;100798.98;;;11.41;49.09
51617;BME280;37697;52.588;13.394;2023-05-10T00:15:46;100794.59;;;11.30;49.36
51617;BME280;37697;52.588;13.394;2023-05-10T00:21:12;100789.86;;;11.24;49.63
51617;BME280;37697;52.588;13.394;2023-05-10T00:26:38;100782.91;;;11.15;49.78
51617;BME280;37697;52.588;13.394;2023-05-10T00:32:04;100772.14;;;11.05;50.24
51617;BME280;37697;52.588;13.394;2023-05-10T00:37:30;100766.62;;;10.97;50.34
51617;BME280;37697;52.588;13.394;2023-05-10T00:42:56;100762.79;;;10.90;50.75
51617;BME280;37697;52.588;13.394;2023-05-10T00:48:23;100759.51;;;10.83;51.10
51617;BME280;37697;52.588;13.394;2023-05-10T00:53:49;100752.41;;;10.76;51.14
51617;BME280;37697;52.588;13.394;2023-05-10T00:59:17;100748.59;;;10.71;51.68
51617;BME280;37697;52.588;13.394;2023-05-10T01:04:45;100745.02;;;10.65;51.71
51617;BME280;37697;52.588;13.394;2023-05-10T01:10:11;100740.03;;;10.61;51.92
51617;BME280;37697;52.588;13.394;2023-05-10T01:15:37;100735.16;;;10.57;52.41
51617;BME280;37697;52.588;13.394;2023-05-10T01:21:19;100727.23;;;10.53;52.37
51617;BME280;37697;52.588;13.394;2023-05-10T01:27:17;100725.64;;;10.46;52.52
51617;BME280;37697;52.588;13.394;2023-05-10T01:32:48;100721.64;;;10.39;52.73
51617;BME280;37697;52.588;13.394;2023-05-10T01:38:25;100717.64;;;10.36;53.15
51617;BME280;37697;52.588;13.394;2023-05-10T01:44:00;100714.14;;;10.29;53.43
51617;BME280;37697;52.588;13.394;2023-05-10T01:49:32;100714.63;;;10.25;53.55
51617;BME280;37697;52.588;13.394;2023-05-10T01:55:04;100715.06;;;10.22;53.99
51617;BME280;37697;52.588;13.394;2023-05-10T02:00:33;100714.37;;;10.18;53.72
51617;BME280;37697;52.588;13.394;2023-05-10T02:06:00;100713.39;;;10.14;54.07
51617;BME280;37697;52.588;13.394;2023-05-10T02:11:28;100705.70;;;10.10;54.11
51617;BME280;37697;52.588;13.394;2023-05-10T02:16:56;100706.56;;;10.04;54.06
51617;BME280;37697;52.588;13.394;2023-05-10T02:22:25;100705.16;;;10.00;54.31
51617;BME280;37697;52.588;13.394;2023-05-10T02:27:56;100697.73;;;9.95;55.00
51617;BME280;37697;52.588;13.394;2023-05-10T02:33:23;100692.25;;;9.92;54.74
51617;BME280;37697;52.588;13.394;2023-05-10T02:38:51;100692.08;;;9.89;54.84
51617;BME280;37697;52.588;13.394;2023-05-10T02:44:19;100692.06;;;9.86;55.16
51617;BME280;37697;52.588;13.394;2023-05-10T02:49:39;100692.73;;;9.82;55.03
51617;BME280;37697;52.588;13.394;2023-05-10T02:55:06;100692.19;;;9.78;55.13
51617;BME280;37697;52.588;13.394;2023-05-10T03:00:35;100693.31;;;9.73;55.01
51617;BME280;37697;52.588;13.394;2023-05-10T03:06:01;100695.50;;;9.66;54.99
51617;BME280;37697;52.588;13.394;2023-05-10T03:11:39;100695.41;;;9.61;55.25
51617;BME280;37697;52.588;13.394;2023-05-10T03:17:23;100693.52;;;9.58;55.54
51617;BME280;37697;52.588;13.394;2023-05-10T03:22:55;100685.77;;;9.55;55.30
51617;BME280;37697;52.588;13.394;2023-05-10T03:28:22;100685.48;;;9.52;55.73
51617;BME280;37697;52.588;13.394;2023-05-10T03:33:51;100681.42;;;9.48;55.75
51617;BME280;37697;52.588;13.394;2023-05-10T03:39:17;100683.65;;;9.46;56.10
51617;BME280;37697;52.588;13.394;2023-05-10T03:44:43;100681.63;;;9.45;56.09
51617;BME280;37697;52.588;13.394;2023-05-10T03:50:10;100680.90;;;9.42;55.96
51617;BME280;37697;52.588;13.394;2023-05-10T03:55:35;100676.36;;;9.40;56.14
51617;BME280;37697;52.588;13.394;2023-05-10T04:01:01;100678.61;;;9.41;56.31
51617;BME280;37697;52.588;13.394;2023-05-10T04:06:27;100678.04;;;9.42;56.14
51617;BME280;37697;52.588;13.394;2023-05-10T04:11:53;100678.52;;;9.43;56.56
51617;BME280;37697;52.588;13.394;2023-05-10T04:17:18;100672.48;;;9.46;56.38
51617;BME280;37697;52.588;13.394;2023-05-10T04:22:44;100667.10;;;9.49;56.32
51617;BME280;37697;52.588;13.394;2023-05-10T04:28:10;100668.98;;;9.57;56.41
51617;BME280;37697;52.588;13.394;2023-05-10T04:33:35;100666.98;;;9.64;56.39
51617;BME280;37697;52.588;13.394;2023-05-10T04:39:03;100665.02;;;10.01;55.72
51617;BME280;37697;52.588;13.394;2023-05-10T04:44:30;100668.03;;;11.07;54.17
51617;BME280;37697;52.588;13.394;2023-05-10T04:49:55;100661.92;;;11.52;53.56
51617;BME280;37697;52.588;13.394;2023-05-10T04:55:21;100657.44;;;12.03;52.84
51617;BME280;37697;52.588;13.394;2023-05-10T05:00:47;100661.61;;;12.57;51.84
51617;BME280;37697;52.588;13.394;2023-05-10T05:06:13;100660.08;;;12.63;51.30
51617;BME280;37697;52.588;13.394;2023-05-10T05:12:00;100661.90;;;12.71;51.28
51617;BME280;37697;52.588;13.394;2023-05-10T05:17:25;100664.67;;;13.24;50.40
51617;BME280;37697;52.588;13.394;2023-05-10T05:22:51;100656.90;;;13.45;49.87
51617;BME280;37697;52.588;13.394;2023-05-10T05:28:18;100652.67;;;13.48;49.74
51617;BME280;37697;52.588;13.394;2023-05-10T05:33:44;100655.08;;;13.54;49.44
51617;BME280;37697;52.588;13.394;2023-05-10T05:39:09;100653.58;;;13.66;49.48
51617;BME280;37697;52.588;13.394;2023-05-10T05:44:35;100647.27;;;13.97;48.76
51617;BME280;37697;52.588;13.394;2023-05-10T05:50:01;100646.70;;;14.34;48.24
51617;BME280;37697;52.588;13.394;2023-05-10T05:55:27;100646.75;;;14.52;47.92
51617;BME280;37697;52.588;13.394;2023-05-10T06:00:44;100642.27;;;14.53;47.63
51617;BME280;37697;52.588;13.394;2023-05-10T06:06:10;100642.55;;;14.50;47.73
51617;BME280;37697;52.588;13.394;2023-05-10T06:11:29;100641.43;;;14.53;47.75
51617;BME280;37697;52.588;13.394;2023-05-10T06:16:55;100642.73;;;14.56;47.30
51617;BME280;37697;52.588;13.394;2023-05-10T06:22:21;100646.46;;;14.63;47.76
51617;BME280;37697;52.588;13.394;2023-05-10T06:27:47;100643.19;;;14.82;47.72
51617;BME280;37697;52.588;13.394;2023-05-10T06:33:13;100647.54;;;15.02;47.18
51617;BME280;37697;52.588;13.394;2023-05-10T06:38:39;100644.06;;;15.19;46.97
51617;BME280;37697;52.588;13.394;2023-05-10T06:44:05;100643.27;;;15.37;47.29
51617;BME280;37697;52.588;13.394;2023-05-10T06:49:30;100644.86;;;15.50;46.42
51617;BME280;37697;52.588;13.394;2023-05-10T06:54:56;100648.48;;;15.64;46.23
51617;BME280;37697;52.588;13.394;2023-05-10T07:00:23;100639.00;;;15.84;46.05
51617;BME280;37697;52.588;13.394;2023-05-10T07:05:48;100643.54;;;16.04;45.52
51617;BME280;37697;52.588;13.394;2023-05-10T07:11:26;100634.00;;;16.04;45.39
51617;BME280;37697;52.588;13.394;2023-05-10T07:16:52;100638.06;;;16.14;45.36
51617;BME280;37697;52.588;13.394;2023-05-10T07:22:18;100632.81;;;16.34;45.19
51617;BME280;37697;52.588;13.394;2023-05-10T07:27:43;100625.95;;;16.52;44.83
51617;BME280;37697;52.588;13.394;2023-05-10T07:33:10;100624.34;;;16.59;44.86
51617;BME280;37697;52.588;13.394;2023-05-10T07:38:36;100635.64;;;16.72;44.80
51617;BME280;37697;52.588;13.394;2023-05-10T07:44:02;100638.02;;;16.88;44.49
51617;BME280;37697;52.588;13.394;2023-05-10T07:49:28;100633.70;;;16.99;44.13
51617;BME280;37697;52.588;13.394;2023-05-10T07:54:54;100628.70;;;17.29;44.01
51617;BME280;37697;52.588;13.394;2023-05-10T08:00:20;100622.21;;;17.57;43.62
51617;BME280;37697;52.588;13.394;2023-05-10T08:05:46;100620.48;;;17.83;43.24
51617;BME280;37697;52.588;13.394;2023-05-10T08:11:10;100615.87;;;18.00;43.54
51617;BME280;37697;52.588;13.394;2023-05-10T08:16:39;100621.14;;;18.24;43.15
51617;BME280;37697;52.588;13.394;2023-05-10T08:22:05;100619.55;;;18.54;42.74
51617;BME280;37697;52.588;13.394;2023-05-10T08:27:31;100617.20;;;18.81;42.17
51617;BME280;37697;52.588;13.394;2023-05-10T08:32:57;100620.10;;;18.88;41.54
51617;BME280;37697;52.588;13.394;2023-05-10T08:38:17;100622.03;;;19.06;41.43
51617;BME280;37697;52.588;13.394;2023-05-10T08:43:45;100625.18;;;19.22;41.18
51617;BME280;37697;52.588;13.394;2023-05-10T08:49:13;100625.69;;;19.35;40.79
51617;BME280;37697;52.588;13.394;2023-05-10T08:54:42;100624.25;;;19.54;40.91
51617;BME280;37697;52.588;13.394;2023-05-10T08:59:59;100624.56;;;19.76;40.54
51617;BME280;37697;52.588;13.394;2023-05-10T09:05:24;100621.32;;;19.85;40.00
51617;BME280;37697;52.588;13.394;2023-05-10T09:10:50;100620.36;;;19.98;40.01
51617;BME280;37697;52.588;13.394;2023-05-10T09:16:16;100621.24;;;20.15;39.77
51617;BME280;37697;52.588;13.394;2023-05-10T09:21:42;100622.01;;;20.27;39.20
51617;BME280;37697;52.588;13.394;2023-05-10T09:27:07;100621.85;;;20.36;39.34
51617;BME280;37697;52.588;13.394;2023-05-10T09:32:41;100619.52;;;20.64;38.88
51617;BME280;37697;52.588;13.394;2023-05-10T09:37:57;100623.30;;;20.70;39.03
51617;BME280;37697;52.588;13.394;2023-05-10T09:43:24;100625.24;;;20.91;38.90
51617;BME280;37697;52.588;13.394;2023-05-10T09:48:50;100623.52;;;21.10;38.80
51617;BME280;37697;52.588;13.394;2023-05-10T09:54:16;100622.58;;;21.29;38.66
51617;BME280;37697;52.588;13.394;2023-05-10T09:59:44;100628.15;;;21.38;37.60
51617;BME280;37697;52.588;13.394;2023-05-10T10:05:12;100624.48;;;21.38;38.06
51617;BME280;37697;52.588;13.394;2023-05-10T10:10:39;100627.90;;;21.61;37.96
51617;BME280;37697;52.588;13.394;2023-05-10T10:16:06;100629.01;;;21.66;37.14
51617;BME280;37697;52.588;13.394;2023-05-10T10:21:33;100619.64;;;21.67;36.71
51617;BME280;37697;52.588;13.394;2023-05-10T10:27:04;100618.05;;;21.73;37.11
51617;BME280;37697;52.588;13.394;2023-05-10T10:32:38;100619.18;;;21.88;36.67
51617;BME280;37697;52.588;13.394;2023-05-10T10:38:24;100618.32;;;21.91;36.29
51617;BME280;37697;52.588;13.394;2023-05-10T10:43:50;100613.09;;;21.96;35.83
51617;BME280;37697;52.588;13.394;2023-05-10T10:49:45;100619.11;;;21.89;36.24
51617;BME280;37697;52.588;13.394;2023-05-10T10:55:15;100626.37;;;22.09;36.06
51617;BME280;37697;52.588;13.394;2023-05-10T11:00:42;100621.98;;;22.20;35.97
51617;BME280;37697;52.588;13.394;2023-05-10T11:06:08;100617.80;;;22.34;36.00
51617;BME280;37697;52.588;13.394;2023-05-10T11:11:35;100610.16;;;22.48;35.59
51617;BME280;37697;52.588;13.394;2023-05-10T11:17:02;100614.66;;;22.59;34.78
51617;BME280;37697;52.588;13.394;2023-05-10T11:22:54;100603.17;;;22.66;35.46
51617;BME280;37697;52.588;13.394;2023-05-10T11:28:20;100606.06;;;22.88;35.28
51617;BME280;37697;52.588;13.394;2023-05-10T11:33:47;100610.70;;;23.00;34.58
51617;BME280;37697;52.588;13.394;2023-05-10T11:39:25;100606.56;;;22.94;34.75
51617;BME280;37697;52.588;13.394;2023-05-10T11:44:51;100601.35;;;23.14;34.76
51617;BME280;37697;52.588;13.394;2023-05-10T11:50:18;100601.45;;;23.19;34.60
51617;BME280;37697;52.588;13.394;2023-05-10T11:55:44;100603.00;;;23.42;35.18
51617;BME280;37697;52.588;13.394;2023-05-10T12:01:10;100612.28;;;23.74;34.40
51617;BME280;37697;52.588;13.394;2023-05-10T12:06:41;100612.18;;;23.69;33.92
51617;BME280;37697;52.588;13.394;2023-05-10T12:12:06;100612.71;;;23.80;34.05
51617;BME280;37697;52.588;13.394;2023-05-10T12:17:33;100612.29;;;23.95;33.99
51617;BME280;37697;52.588;13.394;2023-05-10T12:23:00;100610.77;;;23.97;33.27
51617;BME280;37697;52.588;13.394;2023-05-10T12:28:32;100612.12;;;23.90;33.39
51617;BME280;37697;52.588;13.394;2023-05-10T12:33:56;100618.09;;;23.95;33.02
51617;BME280;37697;52.588;13.394;2023-05-10T12:39:22;100613.27;;;24.00;33.08
51617;BME280;37697;52.588;13.394;2023-05-10T12:44:48;100615.38;;;24.16;32.35
51617;BME280;37697;52.588;13.394;2023-05-10T12:50:15;100612.11;;;24.31;32.25
51617;BME280;37697;52.588;13.394;2023-05-10T12:55:40;100618.14;;;24.35;32.01
51617;BME280;37697;52.588;13.394;2023-05-10T13:01:07;100620.15;;;24.41;31.59
51617;BME280;37697;52.588;13.394;2023-05-10T13:06:33;100620.57;;;24.53;32.28
51617;BME280;37697;52.588;13.394;2023-05-10T13:11:59;100621.63;;;24.54;31.88
51617;BME280;37697;52.588;13.394;2023-05-10T13:17:27;100620.09;;;24.62;31.79
51617;BME280;37697;52.588;13.394;2023-05-10T13:22:46;100610.93;;;24.71;31.23
51617;BME280;37697;52.588;13.394;2023-05-10T13:28:08;100606.98;;;24.52;30.80
51617;BME280;37697;52.588;13.394;2023-05-10T13:33:33;100603.60;;;24.55;31.03
51617;BME280;37697;52.588;13.394;2023-05-10T13:39:00;100608.73;;;24.50;31.06
51617;BME280;37697;52.588;13.394;2023-05-10T13:44:26;100599.73;;;24.40;30.82
51617;BME280;37697;52.588;13.394;2023-05-10T13:49:52;100596.20;;;24.43;30.42
51617;BME280;37697;52.588;13.394;2023-05-10T13:55:18;100602.30;;;24.33;30.18
51617;BME280;37697;52.588;13.394;2023-05-10T14:00:44;100598.66;;;24.23;30.06
51617;BME280;37697;52.588;13.394;2023-05-10T14:06:10;100602.48;;;23.98;30.44
51617;BME280;37697;52.588;13.394;2023-05-10T14:11:36;100603.00;;;23.63;30.61
51617;BME280;37697;52.588;13.394;2023-05-10T14:17:01;100596.91;;;23.60;30.95
51617;BME280;37697;52.588;13.394;2023-05-10T14:22:29;100586.52;;;23.79;31.08
51617;BME280;37697;52.588;13.394;2023-05-10T14:27:55;100591.40;;;23.92;31.08
51617;BME280;37697;52.588;13.394;2023-05-10T14:33:22;100589.41;;;24.02;30.92
51617;BME280;37697;52.588;13.394;2023-05-10T14:38:48;100587.31;;;24.00;30.21
51617;BME280;37697;52.588;13.394;2023-05-10T14:44:13;100590.09;;;23.85;30.59
51617;BME280;37697;52.588;13.394;2023-05-10T14:49:39;100591.88;;;23.72;30.65
51617;BME280;37697;52.588;13.394;2023-05-10T14:55:07;100589.41;;;23.55;30.42
51617;BME280;37697;52.588;13.394;2023-05-10T15:00:33;100589.91;;;23.62;30.50
51617;BME280;37697;52.588;13.394;2023-05-10T15:05:59;100588.62;;;23.62;30.16
51617;BME280;37697;52.588;13.394;2023-05-10T15:11:25;100589.20;;;23.65;30.18
51617;BME280;37697;52.588;13.394;2023-05-10T15:16:51;100591.52;;;23.60;30.26
51617;BME280;37697;52.588;13.394;2023-05-10T15:22:16;100592.08;;;23.62;30.54
51617;BME280;37697;52.588;13.394;2023-05-10T15:27:42;100592.20;;;23.73;30.84
51617;BME280;37697;52.588;13.394;2023-05-10T15:33:08;100595.98;;;23.72;30.42
51617;BME280;37697;52.588;13.394;2023-05-10T15:38:34;100596.83;;;23.61;30.37
51617;BME280;37697;52.588;13.394;2023-05-10T15:44:00;100595.86;;;23.40;30.38
51617;BME280;37697;52.588;13.394;2023-05-10T15:49:26;100596.32;;;23.36;30.88
51617;BME280;37697;52.588;13.394;2023-05-10T15:54:52;100596.55;;;23.32;30.83
51617;BME280;37697;52.588;13.394;2023-05-10T16:00:18;100597.14;;;23.09;30.82
51617;BME280;37697;52.588;13.394;2023-05-10T16:05:44;100601.28;;;22.83;31.27
51617;BME280;37697;52.588;13.394;2023-05-10T16:11:10;100607.41;;;22.65;31.77
51617;BME280;37697;52.588;13.394;2023-05-10T16:16:36;100611.98;;;22.55;32.35
51617;BME280;37697;52.588;13.394;2023-05-10T16:22:02;100616.27;;;22.39;32.71
51617;BME280;37697;52.588;13.394;2023-05-10T16:27:28;100620.79;;;22.21;32.89
51617;BME280;37697;52.588;13.394;2023-05-10T16:32:54;100624.67;;;22.08;33.39
51617;BME280;37697;52.588;13.394;2023-05-10T16:38:11;100629.80;;;22.01;33.68
51617;BME280;37697;52.588;13.394;2023-05-10T16:43:36;100630.58;;;21.91;33.84
51617;BME280;37697;52.588;13.394;2023-05-10T16:49:02;100637.20;;;21.96;34.00
51617;BME280;37697;52.588;13.394;2023-05-10T16:54:31;100649.24;;;21.98;34.87
51617;BME280;37697;52.588;13.394;2023-05-10T16:59:50;100658.77;;;21.83;38.36
51617;BME280;37697;52.588;13.394;2023-05-10T17:05:19;100665.11;;;21.54;40.81
51617;BME280;37697;52.588;13.394;2023-05-10T17:10:44;100673.52;;;21.21;42.29
51617;BME280;37697;52.588;13.394;2023-05-10T17:16:10;100680.26;;;20.81;43.62
51617;BME280;37697;52.588;13.394;2023-05-10T17:21:36;100689.23;;;20.54;44.63
51617;BME280;37697;52.588;13.394;2023-05-10T17:27:02;100695.67;;;20.28;45.59
51617;BME280;37697;52.588;13.394;2023-05-10T17:32:28;100701.60;;;20.07;46.47
51617;BME280;37697;52.588;13.394;2023-05-10T17:37:54;100706.77;;;19.83;47.24
51617;BME280;37697;52.588;13.394;2023-05-10T17:43:21;100717.02;;;19.64;48.03
51617;BME280;37697;52.588;13.394;2023-05-10T17:48:47;100723.80;;;19.45;48.76
51617;BME280;37697;52.588;13.394;2023-05-10T17:54:13;100723.92;;;19.33;49.40
51617;BME280;37697;52.588;13.394;2023-05-10T17:59:39;100731.48;;;19.15;49.92
51617;BME280;37697;52.588;13.394;2023-05-10T18:05:06;100738.18;;;18.93;50.59
51617;BME280;37697;52.588;13.394;2023-05-10T18:10:32;100745.05;;;18.79;51.11
51617;BME280;37697;52.588;13.394;2023-05-10T18:15:58;100746.29;;;18.74;51.44
51617;BME280;37697;52.588;13.394;2023-05-10T18:21:18;100754.66;;;18.67;51.88
51617;BME280;37697;52.588;13.394;2023-05-10T18:26:33;100762.25;;;18.48;52.38
51617;BME280;37697;52.588;13.394;2023-05-10T18:31:59;100770.90;;;18.35;52.85
51617;BME280;37697;52.588;13.394;2023-05-10T18:37:25;100774.63;;;18.31;53.06
51617;BME280;37697;52.588;13.394;2023-05-10T18:42:51;100784.04;;;18.23;53.47
51617;BME280;37697;52.588;13.394;2023-05-10T18:48:17;100791.74;;;18.09;53.74
51617;BME280;37697;52.588;13.394;2023-05-10T18:53:43;100799.66;;;17.94;54.09
51617;BME280;37697;52.588;13.394;2023-05-10T18:59:09;100804.09;;;17.83;54.29
51617;BME280;37697;52.588;13.394;2023-05-10T19:04:36;100812.16;;;17.69;54.62
51617;BME280;37697;52.588;13.394;2023-05-10T19:10:03;100818.90;;;17.53;55.09
51617;BME280;37697;52.588;13.394;2023-05-10T19:15:28;100827.23;;;17.38;55.42
51617;BME280;37697;52.588;13.394;2023-05-10T19:20:56;100830.66;;;17.22;55.84
51617;BME280;37697;52.588;13.394;2023-05-10T19:26:21;100833.34;;;17.06;56.21
51617;BME280;37697;52.588;13.394;2023-05-10T19:31:47;100841.34;;;16.90;56.50
51617;BME280;37697;52.588;13.394;2023-05-10T19:37:13;100843.98;;;16.73;56.86
51617;BME280;37697;52.588;13.394;2023-05-10T19:42:39;100842.08;;;16.57;57.41
51617;BME280;37697;52.588;13.394;2023-05-10T19:48:05;100846.05;;;16.42;57.65
51617;BME280;37697;52.588;13.394;2023-05-10T19:53:32;100852.26;;;16.25;57.96
51617;BME280;37697;52.588;13.394;2023-05-10T19:58:58;100850.52;;;16.09;58.35
51617;BME280;37697;52.588;13.394;2023-05-10T20:04:14;100855.58;;;15.96;58.80
51617;BME280;37697;52.588;13.394;2023-05-10T20:09:40;100853.64;;;15.83;59.06
51617;BME280;37697;52.588;13.394;2023-05-10T20:15:08;100856.46;;;15.67;59.39
51617;BME280;37697;52.588;13.394;2023-05-10T20:20:34;100863.27;;;15.53;59.78
51617;BME280;37697;52.588;13.394;2023-05-10T20:26:00;100864.95;;;15.39;60.09
51617;BME280;37697;52.588;13.394;2023-05-10T20:31:26;100866.42;;;15.25;60.41
51617;BME280;37697;52.588;13.394;2023-05-10T20:36:52;100869.80;;;15.15;60.87
51617;BME280;37697;52.588;13.394;2023-05-10T20:42:17;100876.71;;;14.99;61.14
51617;BME280;37697;52.588;13.394;2023-05-10T20:47:42;100875.46;;;14.87;61.53
51617;BME280;37697;52.588;13.394;2023-05-10T20:53:09;100874.04;;;14.76;61.77
51617;BME280;37697;52.588;13.394;2023-05-10T20:58:34;100878.55;;;14.60;62.10
51617;BME280;37697;52.588;13.394;2023-05-10T21:04:00;100873.86;;;14.50;62.56
51617;BME280;37697;52.588;13.394;2023-05-10T21:09:19;100875.50;;;14.42;62.85
51617;BME280;37697;52.588;13.394;2023-05-10T21:14:44;100879.21;;;14.30;63.29
51617;BME280;37697;52.588;13.394;2023-05-10T21:20:12;100885.21;;;14.20;63.32
51617;BME280;37697;52.588;13.394;2023-05-10T21:25:38;100886.08;;;14.12;63.59
51617;BME280;37697;52.588;13.394;2023-05-10T21:31:04;100890.20;;;14.02;63.67
51617;BME280;37697;52.588;13.394;2023-05-10T21:36:30;100891.52;;;13.91;64.03
51617;BME280;37697;52.588;13.394;2023-05-10T21:41:56;100895.20;;;13.82;64.35
51617;BME280;37697;52.588;13.394;2023-05-10T21:47:22;100896.02;;;13.71;64.56
51617;BME280;37697;52.588;13.394;2023-05-10T21:52:48;100897.02;;;13.61;64.64
51617;BME280;37697;52.588;13.394;2023-05-10T21:58:14;100903.52;;;13.49;64.95
51617;BME280;37697;52.588;13.394;2023-05-10T22:03:39;100899.93;;;13.40;65.21
51617;BME280;37697;52.588;13.394;2023-05-10T22:09:06;100903.27;;;13.31;65.46
51617;BME280;37697;52.588;13.394;2023-05-10T22:20:14;100909.48;;;13.12;65.81
51617;BME280;37697;52.588;13.394;2023-05-10T22:25:40;100914.64;;;13.05;66.38
51617;BME280;37697;52.588;13.394;2023-05-10T22:31:10;100913.77;;;13.00;66.54
51617;BME280;37697;52.588;13.394;2023-05-10T22:36:37;100916.10;;;12.95;66.65
51617;BME280;37697;52.588;13.394;2023-05-10T22:42:01;100920.69;;;12.91;66.93
51617;BME280;37697;52.588;13.394;2023-05-10T22:47:27;100919.65;;;12.86;67.24
51617;BME280;37697;52.588;13.394;2023-05-10T22:52:53;100916.77;;;12.84;67.55
51617;BME280;37697;52.588;13.394;2023-05-10T22:58:19;100919.87;;;12.81;67.88
51617;BME280;37697;52.588;13.394;2023-05-10T23:03:45;100919.16;;;12.77;67.99
51617;BME280;37697;52.588;13.394;2023-05-10T23:09:11;100916.33;;;12.72;68.35
51617;BME280;37697;52.588;13.394;2023-05-10T23:14:37;100918.29;;;12.67;68.23
51617;BME280;37697;52.588;13.394;2023-05-10T23:20:03;100924.48;;;12.61;68.35
51617;BME280;37697;52.588;13.394;2023-05-10T23:25:29;100919.37;;;12.54;68.64
51617;BME280;37697;52.588;13.394;2023-05-10T23:30:57;100917.77;;;12.49;68.94
51617;BME280;37697;52.588;13.394;2023-05-10T23:36:23;100920.59;;;12.41;69.01
51617;BME280;37697;52.588;13.394;2023-05-10T23:41:49;100925.60;;;12.35;68.94
51617;BME280;37697;52.588;13.394;2023-05-10T23:47:06;100927.48;;;12.27;69.30
51617;BME280;37697;52.588;13.394;2023-05-10T23:52:32;100928.52;;;12.20;69.23
51617;BME280;37697;52.588;13.394;2023-05-10T23:57:57;100926.23;;;12.12;69.39
